createdAt,value
2023-04-11T00:00:39.353Z,94495.59
2023-04-11T00:01:36.334Z,94494.34
2023-04-11T00:02:34.894Z,94410.34
2023-04-11T00:03:33.146Z,94431.97
2023-04-11T00:04:30.276Z,94491.88
2023-04-11T00:05:33.521Z,94482.56
2023-04-11T00:06:31.297Z,94485.44
2023-04-11T00:07:28.058Z,94440.47
2023-04-11T00:08:24.882Z,94443.78
2023-04-11T00:09:21.638Z,94447.41
2023-04-11T00:10:18.725Z,94374.25
2023-04-11T00:11:16.185Z,94483.91
2023-04-11T00:12:12.978Z,94416.31
2023-04-11T00:13:10.452Z,94466.38
2023-04-11T00:14:07.552Z,94450.50
2023-04-11T00:15:05.145Z,94432.63
2023-04-11T00:16:03.418Z,94473.06
2023-04-11T00:17:04.882Z,94472.06
2023-04-11T00:18:01.689Z,94403.97
2023-04-11T00:18:58.457Z,94472.53
2023-04-11T00:19:55.871Z,94421.72
2023-04-11T00:20:52.634Z,94438.91
2023-04-11T00:21:51.163Z,94369.94
2023-04-11T00:22:48.306Z,94456.03
2023-04-11T00:23:45.024Z,94460.25
2023-04-11T00:24:41.848Z,94444.13
2023-04-11T00:25:38.732Z,94480.31
2023-04-11T00:26:35.943Z,94409.81
2023-04-11T00:27:32.706Z,94474.72
2023-04-11T00:28:29.537Z,94475.97
2023-04-11T00:29:26.303Z,94481.69
2023-04-11T00:30:23.041Z,94427.19
2023-04-11T00:31:19.762Z,94473.56
2023-04-11T00:32:17.617Z,94474.72
2023-04-11T00:33:14.467Z,94470.75
2023-04-11T00:34:11.154Z,94488.50
2023-04-11T00:35:08.880Z,94461.81
2023-04-11T00:36:06.186Z,94473.94
2023-04-11T00:37:03.115Z,94478.94
2023-04-11T00:38:01.356Z,94466.44
2023-04-11T00:38:58.609Z,94466.34
2023-04-11T00:39:56.204Z,94468.41
2023-04-11T00:40:53.013Z,94443.03
2023-04-11T00:41:49.746Z,94411.66
2023-04-11T00:42:47.946Z,94435.09
2023-04-11T00:43:44.673Z,94339.94
2023-04-11T00:44:41.357Z,94464.03
2023-04-11T00:45:38.793Z,94434.63
2023-04-11T00:46:36.743Z,94451.09
2023-04-11T00:47:34.734Z,94449.66
2023-04-11T00:48:32.048Z,94477.50
2023-04-11T00:49:30.494Z,94436.44
2023-04-11T00:50:29.886Z,94464.63
2023-04-11T00:51:28.668Z,94471.47
2023-04-11T00:52:25.689Z,94459.28
2023-04-11T00:53:25.887Z,94379.38
2023-04-11T00:54:23.948Z,94432.81
2023-04-11T00:55:21.621Z,94463.88
2023-04-11T00:56:18.637Z,94420.47
2023-04-11T00:57:16.029Z,94451.88
2023-04-11T00:58:13.952Z,94457.38
2023-04-11T00:59:11.047Z,94477.63
2023-04-11T01:00:10.998Z,94402.56
2023-04-11T01:01:09.293Z,94431.84
2023-04-11T01:02:06.333Z,94381.03
2023-04-11T01:03:03.285Z,94432.75
2023-04-11T01:04:01.165Z,94472.19
2023-04-11T01:05:00.816Z,94470.59
2023-04-11T01:05:57.713Z,94473.72
2023-04-11T01:07:04.264Z,94466.44
2023-04-11T01:08:01.757Z,94477.75
2023-04-11T01:08:58.670Z,94464.00
2023-04-11T01:09:56.280Z,94475.94
2023-04-11T01:10:53.203Z,94472.28
2023-04-11T01:11:51.418Z,94446.09
2023-04-11T01:12:49.577Z,94484.88
2023-04-11T01:13:46.522Z,94477.13
2023-04-11T01:14:43.649Z,94480.97
2023-04-11T01:15:40.454Z,94471.03
2023-04-11T01:16:37.349Z,94478.06
2023-04-11T01:17:34.498Z,94457.41
2023-04-11T01:18:31.580Z,94466.66
2023-04-11T01:19:29.369Z,94480.38
2023-04-11T01:20:26.487Z,94460.13
2023-04-11T01:21:25.181Z,94464.88
2023-04-11T01:22:26.519Z,94475.47
2023-04-11T01:23:24.557Z,94428.88
2023-04-11T01:24:21.500Z,94484.09
2023-04-11T01:25:22.401Z,94481.47
2023-04-11T01:26:19.227Z,94483.78
2023-04-11T01:27:16.078Z,94465.31
2023-04-11T01:28:12.820Z,94463.75
2023-04-11T01:29:09.866Z,94448.91
2023-04-11T01:30:07.316Z,94479.09
2023-04-11T01:31:04.088Z,94445.88
2023-04-11T01:32:00.871Z,94475.50
2023-04-11T01:32:57.717Z,94447.59
2023-04-11T01:33:54.778Z,94452.13
2023-04-11T01:34:54.189Z,94447.72
2023-04-11T01:35:51.116Z,94479.75
2023-04-11T01:36:48.417Z,94403.94
2023-04-11T01:37:45.378Z,94465.69
2023-04-11T01:38:42.179Z,94467.25
2023-04-11T01:39:39.304Z,94410.53
2023-04-11T01:40:38.190Z,94464.13
2023-04-11T01:41:36.868Z,94462.34
2023-04-11T01:42:35.865Z,94464.28
2023-04-11T01:43:32.630Z,94390.72
2023-04-11T01:44:32.242Z,94467.28
2023-04-11T01:45:30.511Z,94470.59
2023-04-11T01:46:27.689Z,94472.28
2023-04-11T01:47:24.766Z,94474.38
2023-04-11T01:48:21.783Z,94477.75
2023-04-11T01:49:18.997Z,94473.09
2023-04-11T01:50:15.776Z,94452.13
2023-04-11T01:51:12.539Z,94457.34
2023-04-11T01:52:09.665Z,94402.94
2023-04-11T01:53:06.548Z,94459.59
2023-04-11T01:54:03.547Z,94458.41
2023-04-11T01:55:00.282Z,94442.47
2023-04-11T01:55:57.063Z,94460.13
2023-04-11T01:56:55.059Z,94463.78
2023-04-11T01:57:51.820Z,94442.16
2023-04-11T01:58:48.576Z,94424.00
2023-04-11T01:59:45.351Z,94457.66
2023-04-11T02:00:42.105Z,94458.97
2023-04-11T02:01:39.386Z,94370.22
2023-04-11T02:02:36.378Z,94407.50
2023-04-11T02:03:33.450Z,94459.88
2023-04-11T02:04:30.346Z,94421.03
2023-04-11T02:05:27.242Z,94434.47
2023-04-11T02:06:24.071Z,94431.66
2023-04-11T02:07:21.065Z,94454.91
2023-04-11T02:08:17.879Z,94427.53
2023-04-11T02:09:14.720Z,94314.72
2023-04-11T02:10:11.512Z,94449.78
2023-04-11T02:11:08.400Z,94455.53
2023-04-11T02:12:05.528Z,94452.34
2023-04-11T02:13:02.394Z,94454.50
2023-04-11T02:13:59.809Z,94437.84
2023-04-11T02:14:56.658Z,94428.94
2023-04-11T02:15:53.624Z,94449.19
2023-04-11T02:16:55.138Z,94435.72
2023-04-11T02:17:54.102Z,94442.56
2023-04-11T02:18:51.980Z,94428.44
2023-04-11T02:19:48.714Z,94356.66
2023-04-11T02:20:45.657Z,94457.44
2023-04-11T02:21:42.455Z,94443.97
2023-04-11T02:22:39.395Z,94444.41
2023-04-11T02:23:36.291Z,94459.22
2023-04-11T02:24:33.068Z,94457.75
2023-04-11T02:25:32.826Z,94459.78
2023-04-11T02:26:29.614Z,94391.28
2023-04-11T02:27:26.450Z,94462.75
2023-04-11T02:28:23.200Z,94420.56
2023-04-11T02:29:20.173Z,94462.75
2023-04-11T02:30:16.928Z,94459.50
2023-04-11T02:31:13.681Z,94472.63
2023-04-11T02:32:10.748Z,94414.00
2023-04-11T02:33:07.720Z,94424.91
2023-04-11T02:34:04.629Z,94392.09
2023-04-11T02:35:01.612Z,94456.91
2023-04-11T02:35:58.790Z,94458.72
2023-04-11T02:36:55.759Z,94417.38
2023-04-11T02:37:52.522Z,94408.81
2023-04-11T02:38:49.286Z,94467.19
2023-04-11T02:39:46.028Z,94464.47
2023-04-11T02:40:42.785Z,94446.69
2023-04-11T02:41:40.253Z,94401.75
2023-04-11T02:42:37.232Z,94456.72
2023-04-11T02:43:34.066Z,94411.91
2023-04-11T02:44:31.010Z,94454.31
2023-04-11T02:45:27.822Z,94446.25
2023-04-11T02:46:24.848Z,94450.50
2023-04-11T02:47:22.117Z,94444.53
2023-04-11T02:48:18.873Z,94437.19
2023-04-11T02:49:15.671Z,94356.94
2023-04-11T02:50:12.415Z,94443.72
2023-04-11T02:51:09.231Z,94436.69
2023-04-11T02:52:05.931Z,94444.88
2023-04-11T02:53:02.707Z,94323.25
2023-04-11T02:53:59.687Z,94445.72
2023-04-11T02:54:56.515Z,94404.72
2023-04-11T02:55:53.315Z,94336.00
2023-04-11T02:56:50.135Z,94438.81
2023-04-11T02:57:46.909Z,94435.47
2023-04-11T02:58:43.598Z,94430.91
2023-04-11T02:59:40.372Z,94440.44
2023-04-11T03:00:38.150Z,94432.84
2023-04-11T03:01:35.106Z,94369.78
2023-04-11T03:02:32.054Z,94390.56
2023-04-11T03:03:28.982Z,94437.38
2023-04-11T03:04:26.077Z,94401.53
2023-04-11T03:05:23.053Z,94359.41
2023-04-11T03:06:19.781Z,94431.59
2023-04-11T03:07:16.614Z,94427.31
2023-04-11T03:08:13.441Z,94402.72
2023-04-11T03:09:10.259Z,94389.16
2023-04-11T03:10:07.989Z,94388.97
2023-04-11T03:11:06.228Z,94414.38
2023-04-11T03:12:02.943Z,94428.66
2023-04-11T03:12:59.715Z,94345.53
2023-04-11T03:13:56.898Z,94395.72
2023-04-11T03:14:53.722Z,94426.78
2023-04-11T03:15:50.838Z,94435.25
2023-04-11T03:16:47.684Z,94435.47
2023-04-11T03:17:44.563Z,94402.25
2023-04-11T03:18:41.602Z,94342.47
2023-04-11T03:19:38.352Z,94437.69
2023-04-11T03:20:35.076Z,94421.16
2023-04-11T03:21:31.901Z,94417.09
2023-04-11T03:22:28.694Z,94351.97
2023-04-11T03:23:25.785Z,94440.06
2023-04-11T03:24:24.638Z,94328.59
2023-04-11T03:25:21.551Z,94441.63
2023-04-11T03:26:19.042Z,94444.91
2023-04-11T03:27:15.804Z,94437.16
2023-04-11T03:28:12.614Z,94389.22
2023-04-11T03:29:09.414Z,94433.44
2023-04-11T03:30:06.879Z,94433.56
2023-04-11T03:31:03.835Z,94432.59
2023-04-11T03:32:00.853Z,94415.59
2023-04-11T03:33:01.074Z,94444.06
2023-04-11T03:33:59.307Z,94393.28
2023-04-11T03:34:57.620Z,94367.81
2023-04-11T03:35:54.524Z,94395.81
2023-04-11T03:36:51.299Z,94439.66
2023-04-11T03:37:48.038Z,94408.38
2023-04-11T03:38:44.822Z,94357.66
2023-04-11T03:39:41.596Z,94420.06
2023-04-11T03:40:38.277Z,94335.75
2023-04-11T03:41:36.040Z,94393.09
2023-04-11T03:42:32.804Z,94392.53
2023-04-11T03:43:29.661Z,94399.13
2023-04-11T03:44:26.453Z,94429.91
2023-04-11T03:45:23.194Z,94411.22
2023-04-11T03:46:20.037Z,94396.84
2023-04-11T03:47:16.861Z,94422.09
2023-04-11T03:48:20.110Z,94384.72
2023-04-11T03:49:17.360Z,94440.13
2023-04-11T03:50:14.174Z,94437.56
2023-04-11T03:51:10.966Z,94420.56
2023-04-11T03:52:10.059Z,94382.88
2023-04-11T03:53:07.308Z,94424.91
2023-04-11T03:54:04.175Z,94441.44
2023-04-11T03:55:01.175Z,94413.09
2023-04-11T03:55:57.962Z,94384.34
2023-04-11T03:56:54.740Z,94411.44
2023-04-11T03:57:51.660Z,94434.94
2023-04-11T03:58:48.689Z,94431.50
2023-04-11T04:00:06.118Z,94436.38
2023-04-11T04:01:02.885Z,94432.72
2023-04-11T04:01:59.862Z,94435.00
2023-04-11T04:02:56.859Z,94389.31
2023-04-11T04:03:54.255Z,94437.97
2023-04-11T04:04:55.723Z,94436.50
2023-04-11T04:05:52.601Z,94395.97
2023-04-11T04:06:49.432Z,94440.53
2023-04-11T04:07:46.217Z,94364.50
2023-04-11T04:08:43.693Z,94447.09
2023-04-11T04:09:41.487Z,94439.34
2023-04-11T04:10:38.245Z,94434.19
2023-04-11T04:11:35.265Z,94414.44
2023-04-11T04:12:32.280Z,94398.44
2023-04-11T04:13:28.991Z,94437.38
2023-04-11T04:14:25.732Z,94448.91
2023-04-11T04:15:22.791Z,94448.25
2023-04-11T04:16:19.858Z,94445.69
2023-04-11T04:17:16.772Z,94449.81
2023-04-11T04:18:13.553Z,94364.69
2023-04-11T04:19:12.961Z,94446.56
2023-04-11T04:20:11.050Z,94381.94
2023-04-11T04:21:08.629Z,94429.78
2023-04-11T04:22:06.019Z,94418.09
2023-04-11T04:23:04.793Z,94426.03
2023-04-11T04:24:03.654Z,94448.53
2023-04-11T04:25:01.640Z,94433.00
2023-04-11T04:26:02.108Z,94402.66
2023-04-11T04:27:00.985Z,94429.16
2023-04-11T04:27:58.221Z,94432.78
2023-04-11T04:28:57.463Z,94439.25
2023-04-11T04:30:04.354Z,94370.94
2023-04-11T04:31:02.307Z,94432.22
2023-04-11T04:31:59.987Z,94443.81
2023-04-11T04:32:58.954Z,94367.78
2023-04-11T04:33:58.747Z,94435.06
2023-04-11T04:34:55.515Z,94435.00
2023-04-11T04:35:52.449Z,94386.47
2023-04-11T04:36:49.428Z,94435.00
2023-04-11T04:37:46.452Z,94439.59
2023-04-11T04:38:44.040Z,94396.94
2023-04-11T04:39:42.112Z,94386.06
2023-04-11T04:40:40.245Z,94348.31
2023-04-11T04:41:37.010Z,94370.81
2023-04-11T04:42:36.364Z,94432.63
2023-04-11T04:43:33.155Z,94433.41
2023-04-11T04:44:29.908Z,94418.09
2023-04-11T04:45:26.751Z,94434.34
2023-04-11T04:46:23.613Z,94435.94
2023-04-11T04:47:24.622Z,94440.31
2023-04-11T04:48:25.579Z,94437.50
2023-04-11T04:49:23.238Z,94427.28
2023-04-11T04:50:20.673Z,94434.91
2023-04-11T04:51:17.472Z,94436.31
2023-04-11T04:52:15.992Z,94430.13
2023-04-11T04:53:12.858Z,94433.72
2023-04-11T04:54:10.020Z,94398.56
2023-04-11T04:55:07.566Z,94328.25
2023-04-11T04:56:04.778Z,94415.00
2023-04-11T04:57:01.797Z,94430.25
2023-04-11T04:57:58.619Z,94386.88
2023-04-11T04:58:55.444Z,94437.06
2023-04-11T04:59:53.008Z,94385.69
2023-04-11T05:00:55.918Z,94434.06
2023-04-11T05:01:53.756Z,94440.09
2023-04-11T05:02:54.861Z,94402.97
2023-04-11T05:03:59.246Z,94398.97
2023-04-11T05:04:56.956Z,94440.66
2023-04-11T05:05:53.766Z,94417.09
2023-04-11T05:06:50.679Z,94433.16
2023-04-11T05:07:48.405Z,94376.72
2023-04-11T05:08:45.167Z,94399.50
2023-04-11T05:09:42.428Z,94438.59
2023-04-11T05:10:39.132Z,94403.94
2023-04-11T05:11:35.918Z,94433.00
2023-04-11T05:12:32.835Z,94426.22
2023-04-11T05:13:33.699Z,94316.56
2023-04-11T05:14:30.681Z,94433.69
2023-04-11T05:15:27.686Z,94372.97
2023-04-11T05:16:24.486Z,94352.75
2023-04-11T05:17:22.787Z,94409.91
2023-04-11T05:18:21.399Z,94429.38
2023-04-11T05:19:18.170Z,94406.38
2023-04-11T05:20:15.487Z,94430.69
2023-04-11T05:21:13.792Z,94404.34
2023-04-11T05:22:10.593Z,94369.34
2023-04-11T05:23:07.447Z,94392.22
2023-04-11T05:24:04.550Z,94413.63
2023-04-11T05:25:02.558Z,94429.97
2023-04-11T05:25:59.402Z,94394.63
2023-04-11T05:26:56.710Z,94431.56
2023-04-11T05:27:53.483Z,94434.28
2023-04-11T05:28:52.816Z,94374.59
2023-04-11T05:29:49.497Z,94258.19
2023-04-11T05:30:46.307Z,94428.31
2023-04-11T05:31:43.327Z,94409.03
2023-04-11T05:32:40.087Z,94374.53
2023-04-11T05:33:39.973Z,94345.72
2023-04-11T05:34:51.538Z,94424.06
2023-04-11T05:35:48.342Z,94326.28
2023-04-11T05:36:47.275Z,94378.78
2023-04-11T05:37:44.905Z,94423.94
2023-04-11T05:38:42.757Z,94430.75
2023-04-11T05:39:39.518Z,94428.81
2023-04-11T05:40:37.148Z,94377.84
2023-04-11T05:41:33.963Z,94422.53
2023-04-11T05:42:30.774Z,94415.09
2023-04-11T05:43:27.604Z,94416.72
2023-04-11T05:44:24.360Z,94405.13
2023-04-11T05:45:21.247Z,94350.31
2023-04-11T05:46:18.102Z,94368.41
2023-04-11T05:47:14.916Z,94346.00
2023-04-11T05:48:11.985Z,94413.00
2023-04-11T05:49:09.563Z,94414.59
2023-04-11T05:50:07.312Z,94413.06
2023-04-11T05:51:04.265Z,94411.09
2023-04-11T05:52:01.068Z,94417.19
2023-04-11T05:52:57.934Z,94419.97
2023-04-11T05:53:54.834Z,94382.25
2023-04-11T05:54:51.779Z,94376.94
2023-04-11T05:55:48.515Z,94402.31
2023-04-11T05:56:45.204Z,94404.56
2023-04-11T05:57:41.943Z,94369.06
2023-04-11T05:58:39.200Z,94418.69
2023-04-11T05:59:36.210Z,94414.94
2023-04-11T06:00:33.067Z,94389.88
2023-04-11T06:01:30.363Z,94403.81
2023-04-11T06:02:28.007Z,94419.63
2023-04-11T06:03:25.109Z,94420.00
2023-04-11T06:04:22.210Z,94411.69
2023-04-11T06:05:21.209Z,94414.88
2023-04-11T06:06:18.131Z,94377.19
2023-04-11T06:07:15.068Z,94388.72
2023-04-11T06:08:12.202Z,94366.59
2023-04-11T06:09:10.874Z,94399.81
2023-04-11T06:10:08.869Z,94369.25
2023-04-11T06:11:05.700Z,94372.41
2023-04-11T06:12:03.256Z,94341.63
2023-04-11T06:13:00.180Z,94398.22
2023-04-11T06:13:57.326Z,94398.59
2023-04-11T06:14:54.278Z,94342.66
2023-04-11T06:15:51.193Z,94397.03
2023-04-11T06:16:48.117Z,94388.03
2023-04-11T06:17:45.511Z,94368.31
2023-04-11T06:18:42.362Z,94393.38
2023-04-11T06:19:39.303Z,94352.13
2023-04-11T06:20:36.065Z,94385.44
2023-04-11T06:21:32.989Z,94389.94
2023-04-11T06:22:29.753Z,94335.50
2023-04-11T06:23:26.565Z,94279.22
2023-04-11T06:24:45.321Z,94391.59
2023-04-11T06:25:42.179Z,94378.34
2023-04-11T06:26:39.000Z,94294.81
2023-04-11T06:27:36.270Z,94344.75
2023-04-11T06:28:33.070Z,94392.03
2023-04-11T06:29:30.395Z,94350.22
2023-04-11T06:30:27.386Z,94357.09
2023-04-11T06:31:24.281Z,94325.75
2023-04-11T06:32:21.813Z,94324.94
2023-04-11T06:33:18.591Z,94386.50
2023-04-11T06:34:15.518Z,94325.38
2023-04-11T06:35:12.706Z,94383.47
2023-04-11T06:36:10.091Z,94381.59
2023-04-11T06:37:07.596Z,94374.50
2023-04-11T06:38:04.344Z,94351.25
2023-04-11T06:39:01.077Z,94365.22
2023-04-11T06:40:00.169Z,94372.38
2023-04-11T06:40:56.948Z,94375.56
2023-04-11T06:41:53.843Z,94381.09
2023-04-11T06:42:51.028Z,94380.38
2023-04-11T06:43:47.792Z,94362.53
2023-04-11T06:44:48.685Z,94375.47
2023-04-11T06:45:46.943Z,94371.88
2023-04-11T06:46:43.788Z,94372.75
2023-04-11T06:47:40.879Z,94268.38
2023-04-11T06:48:37.681Z,94326.84
2023-04-11T06:49:34.550Z,94377.00
2023-04-11T06:50:31.430Z,94337.63
2023-04-11T06:51:28.217Z,94371.88
2023-04-11T06:52:27.051Z,94374.94
2023-04-11T06:53:24.905Z,94377.22
2023-04-11T06:54:22.774Z,94325.91
2023-04-11T06:55:19.722Z,94294.16
2023-04-11T06:56:16.576Z,94310.78
2023-04-11T06:57:14.075Z,94377.78
2023-04-11T06:58:11.047Z,94347.47
2023-04-11T06:59:07.938Z,94381.81
2023-04-11T07:00:07.150Z,94381.06
2023-04-11T07:01:03.950Z,94348.81
2023-04-11T07:02:00.903Z,94377.00
2023-04-11T07:02:58.062Z,94354.69
2023-04-11T07:03:55.431Z,94337.25
2023-04-11T07:04:53.020Z,94365.47
2023-04-11T07:05:50.638Z,94373.97
2023-04-11T07:06:48.051Z,94377.88
2023-04-11T07:07:44.865Z,94383.47
2023-04-11T07:08:42.214Z,94358.78
2023-04-11T07:09:39.107Z,94374.06
2023-04-11T07:10:35.972Z,94382.25
2023-04-11T07:11:33.836Z,94356.84
2023-04-11T07:12:30.624Z,94375.31
2023-04-11T07:13:27.345Z,94287.09
2023-04-11T07:14:24.082Z,94362.19
2023-04-11T07:15:21.436Z,94356.56
2023-04-11T07:16:18.374Z,94351.88
2023-04-11T07:17:15.451Z,94362.09
2023-04-11T07:18:12.357Z,94351.84
2023-04-11T07:19:09.225Z,94304.31
2023-04-11T07:20:09.318Z,94371.06
2023-04-11T07:21:06.436Z,94365.53
2023-04-11T07:22:04.473Z,94375.34
2023-04-11T07:23:01.270Z,94322.50
2023-04-11T07:23:58.252Z,94370.34
2023-04-11T07:24:58.091Z,94371.31
2023-04-11T07:25:55.680Z,94371.91
2023-04-11T07:26:53.516Z,94372.00
2023-04-11T07:27:51.680Z,94355.53
2023-04-11T07:28:48.445Z,94300.75
2023-04-11T07:29:45.358Z,94287.31
2023-04-11T07:30:42.462Z,94360.50
2023-04-11T07:31:39.294Z,94320.09
2023-04-11T07:32:36.717Z,94362.53
2023-04-11T07:33:34.539Z,94280.91
2023-04-11T07:34:31.663Z,94368.66
2023-04-11T07:35:31.734Z,94359.47
2023-04-11T07:36:28.588Z,94369.97
2023-04-11T07:37:27.033Z,94365.94
2023-04-11T07:38:29.670Z,94367.09
2023-04-11T07:39:27.310Z,94358.09
2023-04-11T07:40:24.330Z,94323.22
2023-04-11T07:41:21.081Z,94362.59
2023-04-11T07:42:18.094Z,94325.75
2023-04-11T07:43:14.840Z,94359.69
2023-04-11T07:44:11.895Z,94247.34
2023-04-11T07:45:09.613Z,94298.16
2023-04-11T07:46:07.166Z,94349.44
2023-04-11T07:47:04.039Z,94345.66
2023-04-11T07:48:00.882Z,94305.63
2023-04-11T07:48:57.798Z,94358.81
2023-04-11T07:49:54.612Z,94339.34
2023-04-11T07:50:52.016Z,94349.31
2023-04-11T07:51:48.776Z,94290.88
2023-04-11T07:52:45.499Z,94351.72
2023-04-11T07:53:42.283Z,94348.88
2023-04-11T07:54:39.106Z,94323.56
2023-04-11T07:55:36.009Z,94347.63
2023-04-11T07:56:32.807Z,94334.22
2023-04-11T07:57:29.823Z,94349.88
2023-04-11T07:58:26.689Z,94334.78
2023-04-11T07:59:23.514Z,94346.44
2023-04-11T08:00:23.963Z,94344.03
2023-04-11T08:01:25.549Z,94332.16
2023-04-11T08:02:23.559Z,94345.91
2023-04-11T08:03:21.036Z,94299.00
2023-04-11T08:04:18.197Z,94346.94
2023-04-11T08:05:15.107Z,94348.19
2023-04-11T08:06:11.971Z,94322.41
2023-04-11T08:07:08.793Z,94294.00
2023-04-11T08:08:06.695Z,94330.19
2023-04-11T08:09:05.555Z,94292.81
2023-04-11T08:10:05.916Z,94316.63
2023-04-11T08:11:02.729Z,94336.28
2023-04-11T08:11:59.479Z,94276.81
2023-04-11T08:12:57.145Z,94295.22
2023-04-11T08:13:54.219Z,94296.69
2023-04-11T08:14:51.016Z,94335.00
2023-04-11T08:15:47.756Z,94293.56
2023-04-11T08:16:45.061Z,94313.91
2023-04-11T08:17:43.914Z,94327.16
2023-04-11T08:18:42.436Z,94307.50
2023-04-11T08:19:39.579Z,94324.97
2023-04-11T08:20:36.458Z,94319.25
2023-04-11T08:21:33.525Z,94311.78
2023-04-11T08:22:31.292Z,94296.66
2023-04-11T08:23:31.525Z,94255.75
2023-04-11T08:24:28.323Z,94319.59
2023-04-11T08:25:25.344Z,94311.03
2023-04-11T08:26:22.184Z,94317.88
2023-04-11T08:27:19.005Z,94320.94
2023-04-11T08:28:15.805Z,94321.75
2023-04-11T08:29:12.595Z,94316.16
2023-04-11T08:30:09.479Z,94297.59
2023-04-11T08:31:07.149Z,94309.41
2023-04-11T08:32:05.038Z,94308.34
2023-04-11T08:33:01.917Z,94319.66
2023-04-11T08:34:00.938Z,94305.81
2023-04-11T08:34:58.325Z,94312.03
2023-04-11T08:35:55.300Z,94306.19
2023-04-11T08:36:52.042Z,94306.97
2023-04-11T08:37:49.537Z,94220.63
2023-04-11T08:38:46.335Z,94311.25
2023-04-11T08:39:43.099Z,94255.31
2023-04-11T08:40:39.937Z,94299.84
2023-04-11T08:41:38.623Z,94303.28
2023-04-11T08:42:36.070Z,94297.75
2023-04-11T08:43:37.041Z,94304.56
2023-04-11T08:44:33.824Z,94285.63
2023-04-11T08:45:31.746Z,94242.88
2023-04-11T08:46:33.491Z,94290.81
2023-04-11T08:47:31.647Z,94295.31
2023-04-11T08:48:29.438Z,94290.19
2023-04-11T08:49:26.213Z,94291.66
2023-04-11T08:50:23.070Z,94282.19
2023-04-11T08:51:23.791Z,94297.94
2023-04-11T08:52:22.313Z,94272.78
2023-04-11T08:53:22.693Z,94279.75
2023-04-11T08:54:19.555Z,94266.81
2023-04-11T08:55:16.443Z,94265.50
2023-04-11T08:56:19.106Z,94279.00
2023-04-11T08:57:33.073Z,94135.09
2023-04-11T08:58:29.862Z,94287.38
2023-04-11T08:59:27.370Z,94276.63
2023-04-11T09:00:25.171Z,94257.69
2023-04-11T09:01:32.171Z,94265.50
2023-04-11T09:02:29.402Z,94173.09
2023-04-11T09:03:26.444Z,94274.66
2023-04-11T09:04:42.689Z,94189.28
2023-04-11T09:05:41.726Z,94278.63
2023-04-11T09:06:40.223Z,94231.75
2023-04-11T09:07:50.273Z,94246.81
2023-04-11T09:08:47.286Z,94278.22
2023-04-11T09:09:44.119Z,94269.16
2023-04-11T09:10:45.603Z,94149.91
2023-04-11T09:11:55.177Z,94267.81
2023-04-11T09:12:52.031Z,94232.47
2023-04-11T09:14:08.472Z,94269.75
2023-04-11T09:15:25.022Z,94271.88
2023-04-11T09:16:22.029Z,94178.41
2023-04-11T09:17:18.917Z,94265.13
2023-04-11T09:18:47.078Z,94269.41
2023-04-11T09:19:45.595Z,94213.78
2023-04-11T09:20:43.719Z,94215.69
2023-04-11T09:21:50.126Z,94262.53
2023-04-11T09:22:53.312Z,94179.75
2023-04-11T09:23:50.242Z,94260.63
2023-04-11T09:25:03.217Z,94258.47
2023-04-11T09:26:00.630Z,94249.13
2023-04-11T09:27:19.683Z,94259.63
2023-04-11T09:28:16.749Z,94240.63
2023-04-11T09:29:35.988Z,94242.22
2023-04-11T09:30:32.750Z,94176.38
2023-04-11T09:31:47.351Z,94206.72
2023-04-11T09:32:44.277Z,94249.44
2023-04-11T09:33:56.510Z,94165.03
2023-04-11T09:35:08.748Z,94224.66
2023-04-11T09:36:19.972Z,94241.28
2023-04-11T09:37:16.793Z,94221.28
2023-04-11T09:38:13.524Z,94245.41
2023-04-11T09:39:20.524Z,94229.00
2023-04-11T09:40:19.303Z,94169.78
2023-04-11T09:41:29.905Z,94213.00
2023-04-11T09:42:26.797Z,94157.22
2023-04-11T09:43:26.671Z,94232.16
2023-04-11T09:44:38.865Z,94217.97
2023-04-11T09:45:44.232Z,94179.19
2023-04-11T09:46:59.969Z,94235.59
2023-04-11T09:47:59.208Z,94232.09
2023-04-11T09:48:56.803Z,94228.00
2023-04-11T09:49:55.495Z,94222.03
2023-04-11T09:50:53.549Z,94215.69
2023-04-11T09:51:51.925Z,94192.94
2023-04-11T09:52:49.180Z,94162.91
2023-04-11T09:53:45.996Z,94207.56
2023-04-11T09:54:42.830Z,94212.75
2023-04-11T09:55:40.969Z,94213.16
2023-04-11T09:56:37.873Z,94190.13
2023-04-11T09:57:36.614Z,94204.75
2023-04-11T09:58:36.556Z,94199.72
2023-04-11T09:59:39.088Z,94169.53
2023-04-11T10:00:36.499Z,94126.88
2023-04-11T10:01:33.611Z,94203.56
2023-04-11T10:02:30.760Z,94203.31
2023-04-11T10:03:27.948Z,94206.78
2023-04-11T10:04:27.967Z,94188.88
2023-04-11T10:05:28.119Z,94163.78
2023-04-11T10:06:41.429Z,94168.31
2023-04-11T10:07:49.950Z,94187.34
2023-04-11T10:08:47.515Z,94195.59
2023-04-11T10:09:46.052Z,94189.63
2023-04-11T10:10:44.342Z,94174.84
2023-04-11T10:11:45.149Z,94187.03
2023-04-11T10:12:42.027Z,94180.66
2023-04-11T10:13:41.912Z,94186.78
2023-04-11T10:14:38.695Z,94188.13
2023-04-11T10:15:35.492Z,94169.28
2023-04-11T10:16:34.274Z,94185.84
2023-04-11T10:17:31.795Z,94176.75
2023-04-11T10:18:28.672Z,94139.78
2023-04-11T10:19:25.796Z,94174.13
2023-04-11T10:20:31.587Z,94175.63
2023-04-11T10:21:32.726Z,94172.25
2023-04-11T10:22:41.848Z,94175.19
2023-04-11T10:24:06.559Z,94173.75
2023-04-11T10:25:19.213Z,94173.19
2023-04-11T10:26:16.022Z,94136.69
2023-04-11T10:27:12.792Z,94167.66
2023-04-11T10:28:32.330Z,94164.53
2023-04-11T10:29:29.248Z,94169.38
2023-04-11T10:30:41.229Z,94152.97
2023-04-11T10:32:16.416Z,94155.72
2023-04-11T10:33:19.693Z,94132.16
2023-04-11T10:34:16.449Z,94128.16
2023-04-11T10:35:16.134Z,94154.72
2023-04-11T10:36:13.122Z,94138.72
2023-04-11T10:37:10.962Z,94126.84
2023-04-11T10:38:48.893Z,94145.03
2023-04-11T10:39:51.985Z,94144.94
2023-04-11T10:41:14.839Z,94144.59
2023-04-11T10:42:31.659Z,94136.88
2023-04-11T10:43:28.741Z,94134.97
2023-04-11T10:44:25.716Z,94138.72
2023-04-11T10:45:24.663Z,94135.50
2023-04-11T10:46:24.398Z,94133.81
2023-04-11T10:47:21.214Z,94144.94
2023-04-11T10:48:18.417Z,94139.72
2023-04-11T10:49:36.506Z,94136.16
2023-04-11T10:50:40.728Z,94129.16
2023-04-11T10:51:37.670Z,94134.38
2023-04-11T10:52:38.522Z,94095.97
2023-04-11T10:53:37.364Z,94131.66
2023-04-11T10:54:34.166Z,94106.50
2023-04-11T10:55:44.022Z,94116.91
2023-04-11T10:56:44.157Z,94120.09
2023-04-11T10:58:09.647Z,94106.72
2023-04-11T10:59:06.341Z,94078.16
2023-04-11T11:00:09.615Z,94104.75
2023-04-11T11:01:26.179Z,94124.06
2023-04-11T11:02:38.118Z,94053.06
2023-04-11T11:03:36.077Z,94115.50
2023-04-11T11:04:34.019Z,94111.72
2023-04-11T11:05:30.775Z,94119.78
2023-04-11T11:06:29.254Z,94117.22
2023-04-11T11:07:27.067Z,94068.16
2023-04-11T11:08:30.615Z,94080.09
2023-04-11T11:09:30.963Z,94118.69
2023-04-11T11:10:46.245Z,93988.41
2023-04-11T11:11:43.113Z,94110.84
2023-04-11T11:12:53.809Z,94068.03
2023-04-11T11:13:56.772Z,94031.78
2023-04-11T11:14:54.943Z,93972.69
2023-04-11T11:15:51.877Z,94036.34
2023-04-11T11:16:48.712Z,94100.78
2023-04-11T11:18:03.978Z,94096.75
2023-04-11T11:19:02.619Z,94108.84
2023-04-11T11:19:59.426Z,94055.47
2023-04-11T11:20:56.526Z,94100.63
2023-04-11T11:21:53.448Z,94090.59
2023-04-11T11:23:04.633Z,94067.63
2023-04-11T11:24:03.644Z,94091.44
2023-04-11T11:25:11.399Z,94091.69
2023-04-11T11:26:08.157Z,94091.97
2023-04-11T11:27:04.910Z,94035.84
2023-04-11T11:28:04.375Z,94085.78
2023-04-11T11:29:02.175Z,94086.28
2023-04-11T11:30:10.366Z,94086.81